Time;durP1;ratioP1;P1;durP2;ratioP2;P2;SDS_P1;SDS_P2;PMS_P1;PMS_P2;Temp;Humidity;BMP_temperature;BMP_pressure;BME280_temperature;BME280_humidity;BME280_pressure;Samples;Min_cycle;Max_cycle;Signal;HPM_P1;HPM_P2
2023/04/10 00:01:10;;;;;;;11.38;6.50;;;8.00;99.90;;;;;;5058283;28;20582;-87
2023/04/10 00:03:36;;;;;;;9.25;6.70;;;8.80;99.90;;;;;;5039821;28;20059;-89
2023/04/10 00:06:02;;;;;;;11.15;6.13;;;9.10;99.90;;;;;;5060225;28;20044;-89
2023/04/10 00:08:33;;;;;;;9.35;5.63;;;7.90;99.90;;;;;;5054838;28;20009;-86
2023/04/10 00:10:59;;;;;;;8.68;5.80;;;7.90;99.90;;;;;;5041338;28;20029;-87
2023/04/10 00:13:25;;;;;;;8.23;5.78;;;7.90;99.90;;;;;;5058828;28;20044;-89
2023/04/10 00:15:51;;;;;;;10.00;6.00;;;7.90;99.90;;;;;;5057932;28;20020;-85
2023/04/10 00:18:17;;;;;;;7.80;5.32;;;7.80;99.90;;;;;;5037463;28;20032;-88
2023/04/10 00:20:42;;;;;;;11.68;6.05;;;7.80;99.90;;;;;;5050749;28;20031;-87
2023/04/10 00:23:08;;;;;;;11.60;5.82;;;7.80;99.90;;;;;;5056212;28;20043;-87
2023/04/10 00:25:34;;;;;;;7.30;4.82;;;7.80;99.90;;;;;;5036960;28;20029;-88
2023/04/10 00:27:59;;;;;;;8.10;5.18;;;7.80;99.90;;;;;;5032259;28;20033;-88
2023/04/10 00:30:25;;;;;;;7.55;5.25;;;7.80;99.90;;;;;;5034668;28;20029;-87
2023/04/10 00:32:51;;;;;;;8.63;5.63;;;7.80;99.90;;;;;;5050741;28;20044;-86
2023/04/10 00:35:16;;;;;;;7.03;5.07;;;7.70;99.90;;;;;;5035986;28;20021;-88
2023/04/10 00:37:42;;;;;;;7.88;5.22;;;7.60;99.90;;;;;;5050582;28;20017;-86
2023/04/10 00:40:08;;;;;;;7.30;4.80;;;7.60;99.90;;;;;;5017723;28;20407;-86
2023/04/10 00:42:33;;;;;;;7.95;5.38;;;7.60;99.90;;;;;;5026739;28;20026;-83
2023/04/10 00:44:59;;;;;;;9.25;5.15;;;8.10;99.90;;;;;;5018428;28;20264;-88
2023/04/10 00:47:26;;;;;;;7.45;5.30;;;8.40;99.90;;;;;;5026698;28;20032;-88
2023/04/10 00:49:55;;;;;;;8.30;5.55;;;8.20;99.90;;;;;;5011965;28;20037;-86
2023/04/10 00:52:28;;;;;;;10.32;5.90;;;7.40;99.90;;;;;;5026809;28;20026;-86
2023/04/10 00:54:53;;;;;;;8.88;5.70;;;7.50;99.90;;;;;;5051336;28;20029;-86
2023/04/10 00:57:19;;;;;;;11.38;5.43;;;8.20;99.90;;;;;;5034833;28;20025;-90
2023/04/10 00:59:47;;;;;;;7.63;4.97;;;7.80;99.90;;;;;;5047272;28;20040;-88
2023/04/10 01:02:12;;;;;;;7.72;5.05;;;7.70;99.90;;;;;;5029381;28;20089;-87
2023/04/10 01:04:41;;;;;;;7.70;5.15;;;7.50;99.90;;;;;;5023231;28;20048;-87
2023/04/10 01:07:31;;;;;;;7.90;5.43;;;7.40;99.90;;;;;;5029845;28;20082;-89
2023/04/10 01:10:31;;;;;;;10.88;5.82;;;7.50;99.90;;;;;;5035562;28;20523;-89
2023/04/10 01:13:24;;;;;;;11.10;5.85;;;7.50;99.90;;;;;;5028078;28;20025;-88
2023/04/10 01:16:25;;;;;;;13.05;6.57;;;7.50;99.90;;;;;;5044930;28;20026;-86
2023/04/10 01:19:07;;;;;;;10.07;5.68;;;7.60;99.90;;;;;;5032995;28;20101;-89
2023/04/10 01:21:36;;;;;;;8.32;5.10;;;7.60;99.90;;;;;;5028901;28;20036;-89
2023/04/10 01:24:17;;;;;;;6.90;4.82;;;7.50;99.90;;;;;;5047972;28;20026;-87
2023/04/10 01:27:03;;;;;;;7.63;5.40;;;7.50;99.90;;;;;;5041873;28;20025;-88
2023/04/10 01:29:38;;;;;;;6.97;4.55;;;7.40;99.90;;;;;;5029553;28;20026;-89
2023/04/10 01:32:10;;;;;;;9.13;5.43;;;8.20;99.90;;;;;;5029343;28;20041;-88
2023/04/10 01:34:42;;;;;;;10.00;5.07;;;8.00;99.90;;;;;;5029854;28;20036;-87
2023/04/10 01:37:16;;;;;;;7.63;5.30;;;8.40;99.90;;;;;;5045096;28;20029;-87
2023/04/10 01:39:46;;;;;;;7.25;4.70;;;7.40;99.90;;;;;;5040434;28;20040;-83
2023/04/10 01:42:14;;;;;;;8.13;5.18;;;7.40;99.90;;;;;;5023481;28;20037;-85
2023/04/10 01:44:45;;;;;;;9.65;5.25;;;7.30;99.90;;;;;;5022375;28;20032;-88
2023/04/10 01:47:15;;;;;;;7.25;5.45;;;7.30;99.90;;;;;;5043570;28;20029;-84
2023/04/10 01:49:47;;;;;;;6.90;4.85;;;7.90;99.90;;;;;;5018943;28;20469;-89
2023/04/10 01:52:15;;;;;;;7.47;4.78;;;7.30;99.90;;;;;;5001496;28;20312;-84
2023/04/10 01:54:42;;;;;;;8.30;5.03;;;8.00;99.90;;;;;;5038191;28;20054;-87
2023/04/10 01:57:09;;;;;;;8.30;5.65;;;7.20;99.90;;;;;;5026891;28;20597;-86
2023/04/10 01:59:38;;;;;;;7.85;5.38;;;7.20;99.90;;;;;;5040413;28;20033;-88
2023/04/10 02:02:06;;;;;;;9.52;6.18;;;8.10;99.90;;;;;;5031657;28;20029;-88
2023/04/10 02:04:32;;;;;;;10.25;6.18;;;7.90;99.90;;;;;;5028394;28;20052;-87
2023/04/10 02:07:22;;;;;;;10.82;6.88;;;6.40;99.90;;;;;;5018217;28;20056;-86
2023/04/10 02:10:01;;;;;;;10.80;6.85;;;7.00;99.90;;;;;;5023055;28;20044;-89
2023/04/10 02:12:44;;;;;;;9.15;6.38;;;6.90;99.90;;;;;;5026110;28;20806;-85
2023/04/10 02:15:11;;;;;;;9.93;6.38;;;6.90;99.90;;;;;;5028143;28;20017;-86
2023/04/10 02:17:38;;;;;;;9.70;6.13;;;7.60;99.90;;;;;;5047151;28;20028;-84
2023/04/10 02:20:08;;;;;;;11.18;6.18;;;7.50;99.90;;;;;;5031017;28;20183;-86
2023/04/10 02:22:35;;;;;;;12.30;6.20;;;6.80;99.90;;;;;;5028421;28;20058;-85
2023/04/10 02:25:03;;;;;;;8.93;5.65;;;7.40;99.90;;;;;;5026856;28;20083;-84
2023/04/10 02:27:34;;;;;;;9.60;5.82;;;6.90;99.90;;;;;;5026046;28;20037;-85
2023/04/10 02:30:02;;;;;;;10.13;6.35;;;6.90;99.90;;;;;;5034221;28;20029;-86
2023/04/10 02:32:34;;;;;;;13.07;6.50;;;6.90;99.90;;;;;;5051924;28;20479;-85
2023/04/10 02:35:01;;;;;;;8.10;5.65;;;6.90;99.90;;;;;;5051194;28;20024;-86
2023/04/10 02:37:30;;;;;;;8.10;5.93;;;6.90;99.90;;;;;;5050789;28;20154;-87
2023/04/10 02:39:55;;;;;;;10.10;6.18;;;7.10;99.90;;;;;;5032190;28;20056;-87
2023/04/10 02:42:21;;;;;;;10.25;5.88;;;6.90;99.90;;;;;;5034368;28;20033;-86
2023/04/10 02:44:47;;;;;;;10.48;5.80;;;7.80;99.90;;;;;;5052445;28;20029;-86
2023/04/10 02:47:14;;;;;;;8.85;5.60;;;7.10;99.90;;;;;;5028852;28;20129;-86
2023/04/10 02:49:40;;;;;;;9.05;5.88;;;6.80;99.90;;;;;;5031951;28;20044;-87
2023/04/10 02:52:06;;;;;;;9.15;5.75;;;7.70;99.90;;;;;;5032377;28;20476;-84
2023/04/10 02:54:31;;;;;;;8.88;6.28;;;8.00;99.90;;;;;;5044053;28;20124;-87
2023/04/10 02:56:57;;;;;;;9.68;6.10;;;7.40;99.90;;;;;;5028905;28;20036;-87
2023/04/10 02:59:26;;;;;;;8.32;5.50;;;7.20;99.90;;;;;;5033669;28;20033;-86
2023/04/10 03:01:52;;;;;;;9.60;5.53;;;6.90;99.90;;;;;;5028239;28;20334;-88
2023/04/10 03:04:18;;;;;;;7.95;5.25;;;7.10;99.90;;;;;;5031605;28;20048;-86
2023/04/10 03:06:44;;;;;;;8.15;5.57;;;7.30;99.90;;;;;;5043854;28;20528;-87
2023/04/10 03:09:10;;;;;;;8.18;5.30;;;6.90;99.90;;;;;;5030726;28;20128;-84
2023/04/10 03:11:35;;;;;;;9.48;5.57;;;8.00;99.90;;;;;;5046350;28;20041;-85
2023/04/10 03:14:01;;;;;;;7.85;5.45;;;6.90;99.90;;;;;;5017933;28;20025;-87
2023/04/10 03:16:27;;;;;;;7.63;5.43;;;7.50;99.90;;;;;;5036583;28;20017;-84
2023/04/10 03:18:52;;;;;;;7.47;5.55;;;7.30;99.90;;;;;;5039551;28;20032;-84
2023/04/10 03:21:18;;;;;;;8.82;5.75;;;7.10;99.90;;;;;;5057178;28;20025;-86
2023/04/10 03:23:46;;;;;;;8.80;5.57;;;6.80;99.90;;;;;;5033971;28;20025;-88
2023/04/10 03:26:12;;;;;;;9.02;6.50;;;7.40;99.90;;;;;;5033905;28;20081;-89
2023/04/10 03:28:38;;;;;;;9.10;6.35;;;7.80;99.90;;;;;;5052365;28;20157;-89
2023/04/10 03:31:07;;;;;;;9.13;5.95;;;7.90;99.90;;;;;;5030394;28;20048;-88
2023/04/10 03:33:35;;;;;;;8.65;5.88;;;7.50;99.90;;;;;;5043395;28;20064;-87
2023/04/10 03:36:01;;;;;;;7.80;5.45;;;7.60;99.90;;;;;;5027339;28;20033;-86
2023/04/10 03:38:26;;;;;;;9.55;6.20;;;6.80;99.90;;;;;;5031111;28;20226;-86
2023/04/10 03:40:52;;;;;;;8.35;5.30;;;7.20;99.90;;;;;;5052202;28;20075;-87
2023/04/10 03:43:18;;;;;;;8.73;5.47;;;6.80;99.90;;;;;;5025563;28;20518;-87
2023/04/10 03:45:44;;;;;;;8.30;5.85;;;6.80;99.90;;;;;;5022908;28;20245;-85
2023/04/10 03:48:09;;;;;;;9.30;5.75;;;6.80;99.90;;;;;;5033828;28;20041;-87
2023/04/10 03:50:35;;;;;;;9.15;5.63;;;7.20;99.90;;;;;;5025605;28;20029;-87
2023/04/10 03:53:04;;;;;;;8.35;5.57;;;7.90;99.90;;;;;;5029357;28;20949;-87
2023/04/10 03:55:29;;;;;;;8.38;5.07;;;7.90;99.90;;;;;;5027588;28;20032;-88
2023/04/10 03:58:01;;;;;;;8.73;5.40;;;6.70;99.90;;;;;;5025514;28;20029;-87
2023/04/10 04:00:27;;;;;;;8.32;5.75;;;6.60;99.90;;;;;;5027931;28;20021;-87
2023/04/10 04:02:52;;;;;;;7.88;5.53;;;7.50;99.90;;;;;;5029059;28;20033;-84
2023/04/10 04:05:18;;;;;;;9.70;6.00;;;6.60;99.90;;;;;;5032341;28;20025;-88
2023/04/10 04:07:44;;;;;;;9.43;5.60;;;6.90;99.90;;;;;;5046478;28;20037;-85
2023/04/10 04:10:10;;;;;;;12.85;5.78;;;6.70;99.90;;;;;;5028799;28;20029;-86
2023/04/10 04:12:35;;;;;;;8.52;5.75;;;7.50;99.90;;;;;;5030336;28;20035;-87
2023/04/10 04:15:01;;;;;;;8.93;5.20;;;6.60;99.90;;;;;;5048551;28;20044;-85
2023/04/10 04:17:27;;;;;;;8.32;5.75;;;7.80;99.90;;;;;;5029826;28;20020;-86
2023/04/10 04:19:52;;;;;;;7.50;5.22;;;7.50;99.90;;;;;;5028159;28;20036;-87
2023/04/10 04:22:19;;;;;;;8.80;5.40;;;7.50;99.90;;;;;;5030464;28;20498;-86
2023/04/10 04:24:45;;;;;;;9.30;5.60;;;6.50;99.90;;;;;;5042036;28;20055;-88
2023/04/10 04:27:11;;;;;;;9.13;5.65;;;7.20;99.90;;;;;;5022140;28;20029;-85
2023/04/10 04:29:36;;;;;;;7.47;5.05;;;6.40;99.90;;;;;;5037208;28;20041;-87
2023/04/10 04:32:02;;;;;;;8.77;5.68;;;6.50;99.90;;;;;;5029887;28;20103;-87
2023/04/10 04:34:27;;;;;;;8.82;6.03;;;6.40;99.90;;;;;;5024045;28;20116;-87
2023/04/10 04:36:53;;;;;;;9.63;5.88;;;7.60;99.90;;;;;;5051044;28;20029;-88
2023/04/10 04:39:20;;;;;;;7.95;5.70;;;6.40;99.90;;;;;;5032592;28;20643;-84
2023/04/10 04:41:46;;;;;;;8.27;5.50;;;7.80;99.90;;;;;;5036237;28;20164;-89
2023/04/10 04:44:11;;;;;;;8.73;6.13;;;6.90;99.90;;;;;;5040041;28;20020;-87
2023/04/10 04:47:05;;;;;;;9.52;5.93;;;7.20;99.90;;;;;;5042728;28;20021;-87
2023/04/10 04:49:31;;;;;;;9.18;5.65;;;6.30;99.90;;;;;;5048572;28;20252;-89
2023/04/10 04:51:56;;;;;;;9.00;6.00;;;7.40;99.90;;;;;;5029580;28;20025;-86
2023/04/10 04:54:22;;;;;;;9.38;5.72;;;7.60;99.90;;;;;;5021966;28;20029;-84
2023/04/10 04:56:47;;;;;;;9.43;6.10;;;6.40;99.90;;;;;;5034090;28;20049;-85
2023/04/10 04:59:13;;;;;;;9.45;5.80;;;6.30;99.90;;;;;;5040534;28;20026;-85
2023/04/10 05:01:39;;;;;;;10.05;6.50;;;6.40;99.90;;;;;;5034037;28;20314;-88
2023/04/10 05:04:04;;;;;;;10.07;6.80;;;7.20;99.90;;;;;;5055786;28;20097;-89
2023/04/10 05:06:30;;;;;;;8.90;5.95;;;6.80;99.90;;;;;;5035003;28;20458;-89
2023/04/10 05:08:56;;;;;;;11.30;6.32;;;6.40;99.90;;;;;;5028881;28;20094;-89
2023/04/10 05:11:24;;;;;;;9.25;6.20;;;7.30;99.90;;;;;;5052227;28;20040;-89
2023/04/10 05:13:50;;;;;;;10.35;6.63;;;7.50;99.90;;;;;;5048971;28;20021;-89
2023/04/10 05:16:15;;;;;;;9.73;6.35;;;6.40;99.90;;;;;;5054161;28;20006;-87
2023/04/10 05:18:41;;;;;;;9.82;6.80;;;7.30;99.90;;;;;;5054428;28;20546;-88
2023/04/10 05:21:07;;;;;;;9.82;6.07;;;7.30;99.90;;;;;;5036376;28;20466;-85
2023/04/10 05:23:32;;;;;;;9.43;6.15;;;7.00;99.90;;;;;;5055963;28;20009;-89
2023/04/10 05:25:58;;;;;;;9.40;6.78;;;7.10;99.90;;;;;;5051928;28;20219;-86
2023/04/10 05:28:24;;;;;;;9.35;5.85;;;6.20;99.90;;;;;;5034671;28;20048;-87
2023/04/10 05:30:49;;;;;;;10.93;6.63;;;7.10;99.90;;;;;;5036074;28;20026;-88
2023/04/10 05:33:15;;;;;;;9.15;6.28;;;6.40;99.90;;;;;;5052840;28;20025;-87
2023/04/10 05:35:40;;;;;;;11.27;6.13;;;7.60;99.90;;;;;;5049184;28;20032;-85
2023/04/10 05:38:06;;;;;;;9.57;5.85;;;7.30;99.90;;;;;;5037993;28;20029;-87
2023/04/10 05:40:32;;;;;;;11.20;6.68;;;7.40;99.90;;;;;;5033204;28;20016;-86
2023/04/10 05:42:57;;;;;;;10.57;6.50;;;7.40;99.90;;;;;;5033056;28;20232;-87
2023/04/10 05:45:23;;;;;;;8.65;5.60;;;7.50;99.90;;;;;;5031633;28;20055;-86
2023/04/10 05:47:49;;;;;;;14.25;6.80;;;7.50;99.90;;;;;;5032627;28;20048;-87
2023/04/10 05:50:14;;;;;;;9.95;6.40;;;7.10;99.90;;;;;;5021568;28;20025;-84
2023/04/10 05:52:40;;;;;;;9.43;6.40;;;6.40;99.90;;;;;;5047806;28;20436;-86
2023/04/10 05:55:07;;;;;;;10.73;6.40;;;6.30;99.90;;;;;;5026671;28;20060;-87
2023/04/10 05:57:32;;;;;;;9.63;6.10;;;6.40;99.90;;;;;;5020314;28;20026;-86
2023/04/10 05:59:58;;;;;;;9.88;6.60;;;6.40;99.90;;;;;;5046758;28;20044;-83
2023/04/10 06:02:24;;;;;;;10.93;6.90;;;6.80;99.90;;;;;;5030698;28;20041;-85
2023/04/10 06:04:52;;;;;;;9.98;6.60;;;6.50;99.90;;;;;;5035916;28;20100;-83
2023/04/10 06:07:18;;;;;;;10.85;7.13;;;7.30;99.90;;;;;;5032009;28;20053;-88
2023/04/10 06:09:44;;;;;;;8.77;5.57;;;6.60;99.90;;;;;;5036793;28;20044;-87
2023/04/10 06:12:09;;;;;;;9.45;6.50;;;6.70;99.90;;;;;;5041852;28;20036;-88
2023/04/10 06:14:35;;;;;;;10.00;7.00;;;6.90;99.90;;;;;;5045890;28;20033;-85
2023/04/10 06:17:01;;;;;;;12.02;7.50;;;8.20;99.90;;;;;;5048089;28;20025;-87
2023/04/10 06:19:26;;;;;;;12.95;7.18;;;7.40;99.90;;;;;;5042278;28;20028;-88
2023/04/10 06:21:52;;;;;;;10.90;6.47;;;7.80;99.90;;;;;;5062126;28;20029;-87
2023/04/10 06:24:18;;;;;;;10.13;6.85;;;7.00;99.90;;;;;;5045027;28;20108;-87
2023/04/10 06:26:43;;;;;;;10.00;6.63;;;8.00;99.90;;;;;;5046611;28;20579;-89
2023/04/10 06:29:09;;;;;;;12.10;6.88;;;7.50;99.90;;;;;;5044606;28;20031;-84
2023/04/10 06:31:35;;;;;;;9.20;6.43;;;8.30;99.90;;;;;;5062686;28;20070;-86
2023/04/10 06:34:00;;;;;;;10.63;7.13;;;7.80;99.90;;;;;;5046155;28;20048;-87
2023/04/10 06:36:26;;;;;;;10.23;7.00;;;8.50;99.90;;;;;;5047465;28;20099;-85
2023/04/10 06:38:52;;;;;;;9.85;6.88;;;7.50;99.90;;;;;;5046746;28;20034;-87
2023/04/10 06:41:17;;;;;;;10.77;6.72;;;8.40;99.90;;;;;;5047549;28;20033;-88
2023/04/10 06:43:44;;;;;;;10.90;6.68;;;8.10;99.90;;;;;;5065916;28;20442;-87
2023/04/10 06:46:10;;;;;;;9.88;6.68;;;8.00;99.90;;;;;;5044278;28;20029;-87
2023/04/10 06:48:36;;;;;;;10.38;7.07;;;8.70;99.90;;;;;;5052839;28;20085;-89
2023/04/10 06:51:02;;;;;;;10.82;6.80;;;8.80;99.90;;;;;;5042982;28;20052;-87
2023/04/10 06:53:28;;;;;;;7.93;5.88;;;8.10;99.90;;;;;;5044085;28;20052;-83
2023/04/10 06:55:53;;;;;;;10.23;7.05;;;8.20;99.90;;;;;;5054063;28;20026;-86
2023/04/10 06:58:19;;;;;;;9.27;6.18;;;8.80;99.90;;;;;;5060046;28;20032;-84
2023/04/10 07:00:45;;;;;;;9.93;6.30;;;9.20;99.90;;;;;;5042610;28;20025;-84
2023/04/10 07:03:11;;;;;;;11.40;6.68;;;8.70;99.90;;;;;;5059556;28;20059;-89
2023/04/10 07:05:39;;;;;;;8.25;6.20;;;9.30;99.90;;;;;;5040345;28;20102;-85
2023/04/10 07:08:06;;;;;;;9.20;6.28;;;8.90;99.90;;;;;;5049520;28;20025;-87
2023/04/10 07:10:32;;;;;;;10.57;6.00;;;9.90;99.90;;;;;;5039157;28;20028;-87
2023/04/10 07:12:57;;;;;;;9.27;6.13;;;9.50;99.90;;;;;;5040843;28;20031;-88
2023/04/10 07:15:24;;;;;;;9.20;6.20;;;9.60;99.90;;;;;;5060573;28;20040;-87
2023/04/10 07:17:50;;;;;;;9.32;6.00;;;9.80;99.90;;;;;;5065275;28;20009;-86
2023/04/10 07:20:16;;;;;;;8.70;6.07;;;9.60;99.90;;;;;;5045016;28;20048;-85
2023/04/10 07:22:41;;;;;;;8.40;6.15;;;10.40;99.90;;;;;;5046097;28;20048;-86
2023/04/10 07:25:07;;;;;;;10.00;6.57;;;10.50;99.90;;;;;;5038794;28;20036;-85
2023/04/10 07:27:33;;;;;;;9.05;6.45;;;9.90;99.90;;;;;;5030386;28;20030;-87
2023/04/10 07:30:01;;;;;;;8.93;6.13;;;10.10;99.90;;;;;;5047075;28;20481;-87
2023/04/10 07:32:28;;;;;;;7.90;6.03;;;10.30;99.90;;;;;;5054616;28;20587;-87
2023/04/10 07:34:53;;;;;;;9.48;6.88;;;10.40;99.90;;;;;;5060729;28;20045;-85
2023/04/10 07:37:21;;;;;;;9.25;6.18;;;10.90;99.90;;;;;;5048078;28;20032;-88
2023/04/10 07:39:47;;;;;;;10.52;6.40;;;11.30;99.90;;;;;;5039683;28;20116;-86
2023/04/10 07:42:12;;;;;;;9.30;6.18;;;11.30;99.90;;;;;;5045275;28;20029;-86
2023/04/10 07:44:38;;;;;;;9.23;5.15;;;11.60;99.90;;;;;;5044568;28;20206;-89
2023/04/10 07:47:04;;;;;;;7.63;5.43;;;11.70;99.90;;;;;;5052688;28;20071;-86
2023/04/10 07:49:29;;;;;;;7.82;5.15;;;11.50;99.90;;;;;;5028025;28;20034;-87
2023/04/10 07:51:58;;;;;;;7.95;5.13;;;12.10;99.90;;;;;;5023022;28;20150;-87
2023/04/10 07:54:33;;;;;;;6.85;5.07;;;11.70;99.90;;;;;;5029449;28;20031;-88
2023/04/10 07:56:58;;;;;;;8.00;4.85;;;12.10;99.90;;;;;;5043951;28;20120;-88
2023/04/10 07:59:25;;;;;;;7.15;4.55;;;12.00;99.90;;;;;;5030924;28;20053;-90
2023/04/10 08:01:51;;;;;;;6.15;4.43;;;12.10;99.40;;;;;;5026734;28;20052;-88
2023/04/10 08:04:16;;;;;;;7.03;4.70;;;12.40;99.00;;;;;;5057919;28;20388;-88
2023/04/10 08:06:42;;;;;;;5.85;4.38;;;13.00;98.50;;;;;;5040930;28;20037;-88
2023/04/10 08:09:08;;;;;;;7.97;4.70;;;12.30;98.50;;;;;;5037733;28;20041;-87
2023/04/10 08:11:34;;;;;;;7.03;4.80;;;12.40;98.30;;;;;;5044341;28;20020;-87
2023/04/10 08:14:01;;;;;;;7.05;4.55;;;12.50;98.10;;;;;;5031579;28;20021;-87
2023/04/10 08:16:30;;;;;;;5.25;4.15;;;13.40;98.10;;;;;;5032936;28;20032;-84
2023/04/10 08:18:59;;;;;;;5.78;4.13;;;13.40;97.40;;;;;;5058777;28;20299;-87
2023/04/10 08:21:26;;;;;;;6.18;4.50;;;12.80;97.20;;;;;;5060639;28;20497;-84
2023/04/10 08:23:54;;;;;;;6.22;4.25;;;13.40;97.00;;;;;;5028033;28;20033;-85
2023/04/10 08:26:20;;;;;;;5.25;3.85;;;13.30;96.30;;;;;;5026975;28;20021;-89
2023/04/10 08:28:51;;;;;;;5.93;3.92;;;13.20;96.30;;;;;;5035672;28;20033;-86
2023/04/10 08:31:17;;;;;;;5.25;3.90;;;13.10;95.90;;;;;;5036383;28;20084;-87
2023/04/10 08:33:43;;;;;;;5.20;3.92;;;13.60;95.40;;;;;;5038229;28;20009;-87
2023/04/10 08:36:10;;;;;;;5.78;4.22;;;13.90;94.40;;;;;;5037597;28;20056;-88
2023/04/10 08:38:35;;;;;;;22.40;15.10;;;13.70;93.90;;;;;;5040463;28;20034;-87
2023/04/10 08:41:01;;;;;;;5.22;3.78;;;13.70;93.10;;;;;;5059549;28;20048;-88
2023/04/10 08:43:27;;;;;;;5.05;3.90;;;13.80;93.30;;;;;;5039535;28;20098;-90
2023/04/10 08:45:52;;;;;;;5.72;4.20;;;13.80;92.60;;;;;;5036721;28;20052;-90
2023/04/10 08:48:19;;;;;;;6.45;3.92;;;14.10;92.40;;;;;;5052886;28;20029;-90
2023/04/10 08:50:45;;;;;;;4.70;3.75;;;14.00;92.50;;;;;;5062336;28;20029;-89
2023/04/10 08:53:13;;;;;;;5.65;3.90;;;13.80;92.60;;;;;;5039145;28;20240;-89
2023/04/10 08:55:40;;;;;;;5.07;3.58;;;14.30;92.60;;;;;;5030682;28;20735;-89
2023/04/10 08:58:06;;;;;;;5.03;3.60;;;14.10;92.40;;;;;;5040801;28;20055;-87
2023/04/10 09:00:39;;;;;;;5.10;3.95;;;14.30;92.40;;;;;;5028244;28;20036;-88
2023/04/10 09:03:10;;;;;;;6.00;4.13;;;14.50;92.10;;;;;;5031048;28;20048;-86
2023/04/10 09:05:36;;;;;;;5.65;3.95;;;14.70;91.70;;;;;;5028543;28;20056;-90
2023/04/10 09:08:03;;;;;;;4.93;3.72;;;14.70;91.30;;;;;;5032901;28;20013;-89
2023/04/10 09:10:29;;;;;;;5.20;3.85;;;15.10;90.90;;;;;;5040539;28;20064;-91
2023/04/10 09:12:55;;;;;;;5.68;3.97;;;15.00;91.00;;;;;;5033938;28;20115;-88
2023/04/10 09:15:20;;;;;;;5.63;4.18;;;15.20;91.00;;;;;;5035162;28;20021;-89
2023/04/10 09:18:00;;;;;;;7.05;4.63;;;15.30;90.40;;;;;;5033364;28;20029;-88
2023/04/10 09:20:28;;;;;;;5.05;3.80;;;15.40;90.20;;;;;;5039339;28;20025;-89
2023/04/10 09:22:57;;;;;;;4.90;3.60;;;15.50;90.00;;;;;;5035962;28;20251;-87
2023/04/10 09:25:30;;;;;;;6.55;4.40;;;15.50;90.10;;;;;;5044761;28;20029;-89
2023/04/10 09:28:03;;;;;;;6.22;4.65;;;15.60;88.70;;;;;;5045286;28;20044;-90
2023/04/10 09:30:36;;;;;;;5.38;4.00;;;15.60;90.20;;;;;;5034834;28;20340;-88
2023/04/10 09:33:02;;;;;;;5.47;3.83;;;15.90;89.70;;;;;;5047921;28;20028;-89
2023/04/10 09:35:38;;;;;;;5.07;3.63;;;15.60;88.90;;;;;;5025067;28;20444;-86
2023/04/10 09:38:14;;;;;;;4.95;3.75;;;15.60;88.30;;;;;;5026391;28;20025;-87
2023/04/10 09:40:40;;;;;;;6.47;4.10;;;15.60;87.90;;;;;;5036180;28;20507;-87
2023/04/10 09:43:19;;;;;;;6.30;3.90;;;15.50;87.50;;;;;;5030359;28;20151;-86
2023/04/10 09:45:49;;;;;;;5.70;3.28;;;15.60;87.60;;;;;;5042600;28;20072;-89
2023/04/10 09:48:19;;;;;;;5.32;3.80;;;15.60;87.10;;;;;;5033884;28;20033;-89
2023/04/10 09:50:45;;;;;;;4.97;3.40;;;15.40;86.40;;;;;;5041947;28;20029;-87
2023/04/10 09:53:13;;;;;;;4.82;3.40;;;16.10;87.40;;;;;;5034921;28;20036;-87
2023/04/10 09:55:40;;;;;;;3.90;2.97;;;15.50;87.20;;;;;;5049905;28;20027;-86
2023/04/10 09:58:07;;;;;;;5.95;3.42;;;15.40;86.00;;;;;;5046429;28;20084;-89
2023/04/10 10:00:39;;;;;;;4.45;2.97;;;15.80;85.80;;;;;;5028343;28;20025;-86
2023/04/10 10:03:08;;;;;;;5.10;3.20;;;16.00;83.50;;;;;;5049149;28;20018;-88
2023/04/10 10:05:41;;;;;;;4.53;3.03;;;16.00;83.70;;;;;;5033236;28;20124;-87
2023/04/10 10:08:13;;;;;;;4.22;3.42;;;16.10;81.00;;;;;;5022771;28;20018;-89
2023/04/10 10:10:52;;;;;;;4.57;3.05;;;16.20;81.60;;;;;;5032529;28;20025;-88
2023/04/10 10:13:58;;;;;;;5.32;3.10;;;16.50;80.70;;;;;;5029909;28;20026;-85
2023/04/10 10:16:43;;;;;;;4.38;3.03;;;16.50;79.80;;;;;;5027652;28;20032;-88
2023/04/10 10:19:15;;;;;;;4.15;2.85;;;16.60;80.20;;;;;;5032277;28;21725;-88
2023/04/10 10:21:44;;;;;;;3.75;3.00;;;16.90;79.50;;;;;;5048702;28;20719;-86
2023/04/10 10:24:12;;;;;;;4.43;3.22;;;17.10;78.40;;;;;;5026529;28;20064;-88
2023/04/10 10:26:42;;;;;;;4.25;3.05;;;17.00;78.20;;;;;;5031010;28;20018;-87
2023/04/10 10:29:12;;;;;;;4.85;3.20;;;17.10;78.80;;;;;;5055933;28;20037;-86
2023/04/10 10:31:39;;;;;;;4.15;3.08;;;17.00;77.50;;;;;;5033645;28;20033;-87
2023/04/10 10:34:07;;;;;;;4.70;2.75;;;16.90;78.60;;;;;;5042080;28;20021;-88
2023/04/10 10:36:34;;;;;;;4.75;3.28;;;17.10;78.00;;;;;;5040754;28;20064;-88
2023/04/10 10:39:37;;;;;;;4.63;3.13;;;17.10;78.40;;;;;;5051098;28;20071;-87
2023/04/10 10:42:42;;;;;;;5.43;3.58;;;17.30;77.30;;;;;;5041800;28;20020;-89
2023/04/10 10:45:31;;;;;;;4.85;3.40;;;17.40;77.70;;;;;;5054940;28;20020;-87
2023/04/10 10:47:57;;;;;;;5.80;3.40;;;17.60;77.40;;;;;;5050565;28;20045;-88
2023/04/10 10:50:23;;;;;;;4.95;3.58;;;17.60;77.20;;;;;;5055908;28;20044;-87
2023/04/10 10:52:54;;;;;;;4.78;3.38;;;17.60;77.00;;;;;;5041892;28;20010;-90
2023/04/10 10:55:30;;;;;;;4.63;3.38;;;17.80;76.90;;;;;;5051455;28;20013;-92
2023/04/10 10:58:04;;;;;;;4.38;3.10;;;17.80;75.90;;;;;;5053473;28;20018;-89
2023/04/10 11:00:49;;;;;;;5.38;3.20;;;17.60;76.10;;;;;;5049455;28;20017;-90
2023/04/10 11:32:02;;;;;;;4.00;2.97;;;18.10;71.60;;;;;;5014772;28;20034;-88
2023/04/10 11:34:32;;;;;;;4.82;2.90;;;18.10;71.50;;;;;;4995468;28;20507;-88
2023/04/10 11:37:00;;;;;;;3.97;2.80;;;18.10;72.20;;;;;;4995703;28;20026;-88
2023/04/10 11:39:26;;;;;;;3.83;2.92;;;18.10;71.90;;;;;;4989191;28;20033;-90
2023/04/10 11:41:54;;;;;;;3.72;2.53;;;18.20;71.60;;;;;;5002522;28;20014;-87
2023/04/10 11:44:29;;;;;;;3.47;2.50;;;18.30;71.30;;;;;;4982137;28;20038;-88
2023/04/10 11:46:55;;;;;;;4.63;2.53;;;18.30;70.40;;;;;;4989156;28;20190;-90
2023/04/10 11:49:25;;;;;;;4.45;3.17;;;18.20;71.30;;;;;;4985804;28;20057;-88
2023/04/10 11:51:51;;;;;;;4.53;3.22;;;18.20;71.40;;;;;;4984375;28;20521;-90
2023/04/10 11:54:20;;;;;;;4.68;2.90;;;18.20;70.90;;;;;;4986829;28;20058;-88
2023/04/10 11:56:57;;;;;;;4.57;2.83;;;18.40;71.10;;;;;;4982125;28;20053;-88
2023/04/10 11:59:23;;;;;;;3.45;2.50;;;18.40;70.50;;;;;;4982374;28;20030;-89
2023/04/10 12:01:55;;;;;;;3.35;2.30;;;18.20;70.50;;;;;;4977335;28;20030;-89
2023/04/10 12:04:22;;;;;;;3.55;2.42;;;18.20;70.80;;;;;;4999669;28;20510;-88
2023/04/10 12:06:52;;;;;;;3.35;2.38;;;18.20;69.70;;;;;;4983475;28;20630;-89
2023/04/10 12:09:19;;;;;;;5.07;2.58;;;18.40;69.40;;;;;;4981903;28;20061;-86
2023/04/10 12:11:58;;;;;;;3.85;2.50;;;18.40;69.90;;;;;;5000743;28;20053;-89
2023/04/10 12:14:48;;;;;;;3.30;2.30;;;18.40;68.70;;;;;;4977314;28;20034;-87
2023/04/10 12:17:15;;;;;;;3.17;2.17;;;18.40;68.60;;;;;;4980959;28;20034;-89
2023/04/10 12:19:41;;;;;;;3.50;2.33;;;18.40;68.90;;;;;;4983878;28;20031;-88
2023/04/10 12:22:11;;;;;;;3.38;2.50;;;18.20;68.80;;;;;;4986437;28;20042;-86
2023/04/10 12:24:51;;;;;;;3.30;2.15;;;18.10;68.80;;;;;;5002731;28;20191;-90
2023/04/10 12:27:22;;;;;;;4.00;2.60;;;18.30;68.90;;;;;;4981774;28;20110;-89
2023/04/10 12:29:49;;;;;;;2.63;2.10;;;18.20;68.70;;;;;;4990520;28;20043;-88
2023/04/10 12:32:15;;;;;;;3.25;2.25;;;18.20;68.50;;;;;;5005260;28;20117;-86
2023/04/10 12:34:41;;;;;;;3.08;2.05;;;18.30;68.80;;;;;;5002596;28;20022;-86
2023/04/10 12:37:08;;;;;;;3.40;2.10;;;18.30;68.80;;;;;;5001240;28;20030;-89
2023/04/10 12:39:34;;;;;;;3.50;2.40;;;18.30;68.00;;;;;;5000848;28;20026;-88
2023/04/10 12:42:20;;;;;;;3.15;2.20;;;18.40;68.80;;;;;;4991039;28;20043;-87
2023/04/10 12:44:54;;;;;;;3.83;2.33;;;18.30;68.30;;;;;;4991273;28;20026;-90
2023/04/10 12:47:21;;;;;;;4.75;3.05;;;18.20;69.20;;;;;;4995510;28;20022;-89
2023/04/10 12:50:06;;;;;;;2.90;1.92;;;18.30;69.50;;;;;;4998257;28;20033;-89
2023/04/10 12:52:32;;;;;;;2.80;2.10;;;18.50;69.50;;;;;;4995111;28;20026;-88
2023/04/10 12:55:18;;;;;;;5.22;3.30;;;18.50;68.00;;;;;;4981816;28;20030;-87
2023/04/10 12:57:49;;;;;;;3.42;2.45;;;18.50;66.70;;;;;;4989496;28;20046;-88
2023/04/10 13:00:17;;;;;;;3.67;2.20;;;18.40;65.80;;;;;;4993944;28;20030;-88
2023/04/10 13:02:46;;;;;;;3.38;1.70;;;18.30;66.10;;;;;;4995103;28;20042;-90
2023/04/10 13:05:15;;;;;;;3.55;1.90;;;18.10;66.10;;;;;;4988765;28;20026;-90
2023/04/10 13:07:41;;;;;;;3.92;1.88;;;18.10;65.70;;;;;;4993518;28;20030;-86
2023/04/10 13:10:13;;;;;;;3.67;2.38;;;18.00;66.40;;;;;;4993708;28;20050;-89
2023/04/10 13:12:43;;;;;;;2.55;1.70;;;18.00;66.60;;;;;;4995423;28;20027;-89
2023/04/10 13:15:12;;;;;;;3.33;1.83;;;18.00;66.50;;;;;;4989767;28;20447;-88
2023/04/10 13:17:40;;;;;;;2.45;1.85;;;18.00;66.40;;;;;;4989374;28;20261;-89
2023/04/10 13:20:09;;;;;;;2.90;1.80;;;18.10;66.90;;;;;;4995939;28;20031;-88
2023/04/10 13:22:38;;;;;;;2.78;1.98;;;18.10;67.70;;;;;;4996173;28;20178;-87
2023/04/10 13:25:13;;;;;;;3.63;2.00;;;18.20;68.20;;;;;;4989728;28;20110;-89
2023/04/10 13:27:44;;;;;;;2.50;1.77;;;18.20;68.10;;;;;;4979635;28;20069;-91